Time;durP1;ratioP1;P1;durP2;ratioP2;P2;SDS_P1;SDS_P2;PMS_P1;PMS_P2;Temp;Humidity;BMP_temperature;BMP_pressure;BME280_temperature;BME280_humidity;BME280_pressure;Samples;Min_cycle;Max_cycle;Signal;HPM_P1;HPM_P2
2022/07/30 00:02:03;;;;;;;9.33;8.10;;;;;;;;;;5070376;28;20426;-58
2022/07/30 00:04:29;;;;;;;8.93;7.00;;;;;;;;;;5070263;28;20184;-58
2022/07/30 00:07:22;;;;;;;8.10;7.30;;;23.50;1.00;;;;;;5068262;28;20987;-58
2022/07/30 00:09:47;;;;;;;7.23;6.50;;;23.30;1.00;;;;;;5055809;28;20465;-59
2022/07/30 00:12:12;;;;;;;8.33;6.87;;;23.30;1.00;;;;;;5048426;28;20454;-58
2022/07/30 00:14:38;;;;;;;9.80;6.97;;;;;;;;;;5047948;28;20203;-58
2022/07/30 00:17:04;;;;;;;8.60;7.23;;;23.20;1.00;;;;;;5047409;28;20176;-57
2022/07/30 00:19:30;;;;;;;7.67;6.97;;;;;;;;;;5048404;28;20462;-58
2022/07/30 00:21:57;;;;;;;6.87;6.17;;;;;;;;;;5045081;28;20192;-58
2022/07/30 00:24:22;;;;;;;9.83;6.90;;;22.70;1.00;;;;;;5043346;28;20821;-57
2022/07/30 00:26:48;;;;;;;8.60;6.17;;;;;;;;;;5057724;28;20469;-58
2022/07/30 00:29:14;;;;;;;10.83;6.50;;;22.60;1.00;;;;;;5052070;28;20211;-57
2022/07/30 00:31:40;;;;;;;6.73;6.03;;;;;;;;;;5046683;28;20447;-58
2022/07/30 00:34:06;;;;;;;7.33;6.73;;;22.50;1.00;;;;;;5049255;28;20218;-58
2022/07/30 00:36:32;;;;;;;7.23;6.70;;;;;;;;;;5049062;28;20481;-59
2022/07/30 00:38:58;;;;;;;7.43;6.43;;;22.40;1.00;;;;;;5049264;28;20602;-57
2022/07/30 00:41:23;;;;;;;7.77;7.07;;;22.40;1.00;;;;;;5046457;28;20459;-57
2022/07/30 00:43:49;;;;;;;7.50;6.80;;;;;;;;;;5049637;28;20226;-59
2022/07/30 00:46:15;;;;;;;7.03;6.43;;;;;;;;;;5045497;28;20237;-58
2022/07/30 00:48:42;;;;;;;7.50;6.80;;;22.40;1.00;;;;;;5049213;28;20465;-58
2022/07/30 00:51:08;;;;;;;7.40;6.70;;;;;;;;;;5042858;28;20450;-57
2022/07/30 00:53:34;;;;;;;6.80;6.30;;;22.20;1.00;;;;;;5044575;28;20533;-58
2022/07/30 00:56:01;;;;;;;8.23;7.50;;;22.20;1.00;;;;;;5047771;28;20776;-58
2022/07/30 00:58:27;;;;;;;7.30;6.70;;;22.10;1.00;;;;;;5047279;28;20489;-58
2022/07/30 01:00:53;;;;;;;7.03;6.50;;;22.00;1.00;;;;;;5045779;28;20478;-59
2022/07/30 01:03:19;;;;;;;7.00;6.30;;;;;;;;;;5051118;28;20484;-59
2022/07/30 01:05:45;;;;;;;7.80;7.20;;;;;;;;;;5048531;28;21000;-59
2022/07/30 01:08:11;;;;;;;8.13;7.30;;;;;;;;;;5056369;28;20480;-59
2022/07/30 01:10:37;;;;;;;7.20;6.60;;;;;;;;;;5047590;28;20445;-58
2022/07/30 01:13:04;;;;;;;7.70;7.00;;;22.00;1.00;;;;;;5049003;28;20446;-58
2022/07/30 01:15:31;;;;;;;8.10;7.30;;;21.90;1.00;;;;;;5047320;28;21002;-57
2022/07/30 01:17:59;;;;;;;7.30;6.70;;;21.80;1.00;;;;;;5080119;28;20450;-59
2022/07/30 01:20:32;;;;;;;7.30;6.40;;;21.80;1.00;;;;;;5046913;28;20524;-59
2022/07/30 01:23:12;;;;;;;7.57;6.70;;;21.70;1.00;;;;;;5044884;28;20536;-58
2022/07/30 01:25:57;;;;;;;8.77;8.00;;;21.80;1.00;;;;;;5046189;28;20568;-59
2022/07/30 01:28:28;;;;;;;8.80;7.90;;;21.70;1.00;;;;;;5045566;28;21041;-59
2022/07/30 01:30:56;;;;;;;8.10;7.40;;;21.80;1.00;;;;;;5047620;28;20449;-59
2022/07/30 01:33:24;;;;;;;9.00;8.27;;;21.90;1.00;;;;;;5046652;28;20504;-57
2022/07/30 01:35:51;;;;;;;8.87;8.00;;;21.80;1.00;;;;;;5082080;28;20572;-59
2022/07/30 01:38:21;;;;;;;8.47;7.60;;;21.80;1.00;;;;;;5053819;28;20521;-59
2022/07/30 01:40:49;;;;;;;8.30;7.50;;;21.70;1.00;;;;;;5050110;28;20446;-59
2022/07/30 01:43:16;;;;;;;8.23;7.63;;;21.70;1.00;;;;;;5051608;28;20866;-59
2022/07/30 01:45:43;;;;;;;8.30;7.57;;;21.80;1.00;;;;;;5045351;28;20496;-58
2022/07/30 01:48:11;;;;;;;8.00;7.30;;;21.80;1.00;;;;;;5041843;28;20532;-59
2022/07/30 01:50:41;;;;;;;8.60;7.90;;;21.80;1.00;;;;;;5050582;28;20522;-59
2022/07/30 01:53:07;;;;;;;7.97;7.30;;;21.70;1.00;;;;;;5050800;28;20545;-59
2022/07/30 01:55:35;;;;;;;8.13;7.43;;;21.60;1.00;;;;;;5047255;28;20919;-58
2022/07/30 01:58:04;;;;;;;8.37;7.57;;;21.70;1.00;;;;;;5052394;28;21006;-58
2022/07/30 02:00:32;;;;;;;10.00;7.90;;;21.70;1.00;;;;;;5051360;28;20461;-59
2022/07/30 02:02:58;;;;;;;10.43;8.17;;;21.70;1.00;;;;;;5051538;28;20454;-57
2022/07/30 02:05:25;;;;;;;8.67;7.97;;;21.70;1.00;;;;;;5049949;28;20446;-59
2022/07/30 02:07:51;;;;;;;8.67;7.87;;;;;;;;;;5052362;28;20481;-58
2022/07/30 02:10:29;;;;;;;8.43;7.70;;;21.50;1.00;;;;;;5049681;28;20895;-58
2022/07/30 02:12:56;;;;;;;8.80;7.97;;;21.50;1.00;;;;;;5050081;28;20970;-59
2022/07/30 02:15:36;;;;;;;9.30;8.33;;;21.60;1.00;;;;;;5049536;28;20522;-58
2022/07/30 02:18:13;;;;;;;8.83;8.00;;;21.50;1.00;;;;;;5049409;28;20982;-58
2022/07/30 02:20:59;;;;;;;9.03;8.33;;;21.30;1.00;;;;;;5049571;28;20446;-60
2022/07/30 02:23:27;;;;;;;7.87;7.27;;;21.30;1.00;;;;;;5079708;28;21089;-59
2022/07/30 02:25:53;;;;;;;8.40;7.47;;;21.30;1.00;;;;;;5048359;28;20572;-58
2022/07/30 02:28:20;;;;;;;9.83;8.97;;;21.20;1.00;;;;;;5050358;28;20462;-60
2022/07/30 02:30:52;;;;;;;9.47;8.67;;;21.20;1.00;;;;;;5051093;28;22355;-59
2022/07/30 02:33:21;;;;;;;9.00;8.20;;;21.20;1.00;;;;;;5052260;28;20788;-57
2022/07/30 02:35:48;;;;;;;9.10;8.20;;;21.20;1.00;;;;;;5049403;28;20474;-58
2022/07/30 02:38:16;;;;;;;8.80;8.00;;;21.30;1.00;;;;;;5050250;28;20497;-59
2022/07/30 02:40:43;;;;;;;9.47;8.67;;;21.30;1.00;;;;;;5049838;28;20808;-58
2022/07/30 02:43:10;;;;;;;8.97;8.27;;;21.30;1.00;;;;;;5050149;28;20541;-59
2022/07/30 02:45:37;;;;;;;8.13;7.27;;;21.30;1.00;;;;;;5047202;28;20462;-57
2022/07/30 02:48:09;;;;;;;8.80;8.00;;;21.30;1.00;;;;;;5050184;28;20997;-58
2022/07/30 02:50:35;;;;;;;9.93;8.20;;;21.40;1.00;;;;;;5049567;28;20959;-58
2022/07/30 02:53:04;;;;;;;8.60;7.90;;;21.20;1.00;;;;;;5050890;28;20438;-59
2022/07/30 02:55:32;;;;;;;8.83;8.03;;;21.20;1.00;;;;;;5050690;28;20608;-58
2022/07/30 02:58:01;;;;;;;7.73;7.03;;;21.20;1.00;;;;;;5057308;28;20458;-58
2022/07/30 03:00:29;;;;;;;9.07;8.17;;;21.20;1.00;;;;;;5051085;28;20994;-58
2022/07/30 03:02:56;;;;;;;8.20;7.50;;;21.40;1.00;;;;;;5048832;28;20943;-58
2022/07/30 03:05:23;;;;;;;9.63;8.30;;;21.40;1.00;;;;;;5049064;28;20808;-57
2022/07/30 03:07:50;;;;;;;8.07;7.27;;;21.50;1.00;;;;;;5051563;28;21136;-58
2022/07/30 03:10:17;;;;;;;8.57;7.77;;;21.50;1.00;;;;;;5048833;28;20529;-57
2022/07/30 03:12:45;;;;;;;10.20;8.50;;;21.50;1.00;;;;;;5050606;28;20546;-59
2022/07/30 03:15:11;;;;;;;8.83;7.93;;;21.50;1.00;;;;;;5050231;28;20533;-57
2022/07/30 03:17:41;;;;;;;8.90;8.10;;;21.60;1.00;;;;;;5047298;28;21208;-57
2022/07/30 03:20:10;;;;;;;9.20;8.50;;;21.50;1.00;;;;;;5049099;28;20824;-58
2022/07/30 03:22:40;;;;;;;9.20;8.30;;;21.40;1.00;;;;;;5050713;28;20776;-59
2022/07/30 03:25:08;;;;;;;9.27;8.47;;;21.40;1.00;;;;;;5050036;28;20504;-57
2022/07/30 03:27:36;;;;;;;9.37;8.50;;;21.30;1.00;;;;;;5048414;28;20442;-58
2022/07/30 03:30:04;;;;;;;10.37;8.50;;;21.20;1.00;;;;;;5046605;28;20446;-59
2022/07/30 03:32:31;;;;;;;9.80;8.17;;;21.20;1.00;;;;;;5048870;28;20466;-58
2022/07/30 03:34:58;;;;;;;9.40;8.53;;;21.20;1.00;;;;;;5048143;28;20528;-58
2022/07/30 03:37:26;;;;;;;9.57;8.67;;;21.20;1.00;;;;;;5049318;28;20604;-57
2022/07/30 03:39:52;;;;;;;10.17;8.43;;;21.10;1.00;;;;;;5047937;28;20568;-59
2022/07/30 03:42:20;;;;;;;9.97;8.70;;;21.00;1.00;;;;;;5049270;28;20808;-58
2022/07/30 03:44:46;;;;;;;9.47;8.67;;;21.10;1.00;;;;;;5047554;28;20567;-58
2022/07/30 03:47:14;;;;;;;9.00;8.30;;;20.90;1.00;;;;;;5045549;28;21008;-56
2022/07/30 03:49:40;;;;;;;9.43;7.60;;;20.90;1.00;;;;;;5047960;28;20481;-58
2022/07/30 03:52:06;;;;;;;9.73;8.93;;;20.90;1.00;;;;;;5049430;28;20450;-58
2022/07/30 03:54:33;;;;;;;8.50;7.73;;;21.20;1.00;;;;;;5048806;28;20187;-57
2022/07/30 03:57:00;;;;;;;10.37;9.37;;;21.20;1.00;;;;;;5050258;28;20260;-58
2022/07/30 03:59:27;;;;;;;9.27;8.10;;;21.10;1.00;;;;;;5048894;28;20535;-58
2022/07/30 04:01:53;;;;;;;10.60;9.50;;;;;;;;;;5046789;28;20443;-58
2022/07/30 04:04:19;;;;;;;8.70;7.90;;;21.10;1.00;;;;;;5047908;28;20447;-57
2022/07/30 04:06:44;;;;;;;8.87;8.03;;;21.20;1.00;;;;;;5045295;28;20461;-58
2022/07/30 04:09:11;;;;;;;8.73;7.83;;;21.20;1.00;;;;;;5049790;28;20707;-57
2022/07/30 04:11:37;;;;;;;8.90;8.10;;;21.20;1.00;;;;;;5057294;28;20183;-58
2022/07/30 04:14:03;;;;;;;13.17;9.73;;;21.20;1.00;;;;;;5052846;28;20472;-57
2022/07/30 04:16:36;;;;;;;10.60;9.70;;;21.20;1.00;;;;;;5045050;28;20448;-57
2022/07/30 04:19:07;;;;;;;10.43;9.53;;;21.10;1.00;;;;;;5046586;28;20545;-58
2022/07/30 04:21:34;;;;;;;8.27;7.57;;;21.20;1.00;;;;;;5059273;28;20481;-58
2022/07/30 04:24:00;;;;;;;10.83;9.60;;;21.10;1.00;;;;;;5048212;28;20446;-58
2022/07/30 04:26:30;;;;;;;10.20;9.20;;;21.10;1.00;;;;;;5048629;28;20503;-58
2022/07/30 04:28:57;;;;;;;11.70;9.10;;;21.00;1.00;;;;;;5048403;28;20474;-58
2022/07/30 04:31:23;;;;;;;10.33;9.37;;;;;;;;;;5044809;28;20452;-56
2022/07/30 04:33:49;;;;;;;10.83;8.70;;;;;;;;;;5048082;28;20526;-58
2022/07/30 04:36:15;;;;;;;10.23;9.33;;;21.10;1.00;;;;;;5049950;28;20465;-57
2022/07/30 04:38:40;;;;;;;10.10;9.10;;;21.20;1.00;;;;;;5055040;28;20450;-57
2022/07/30 04:41:06;;;;;;;10.60;9.50;;;21.10;1.00;;;;;;5049633;28;20188;-57
2022/07/30 04:43:32;;;;;;;10.73;9.60;;;21.00;1.00;;;;;;5049032;28;20192;-57
2022/07/30 04:45:57;;;;;;;10.43;9.60;;;21.00;1.00;;;;;;5048821;28;20450;-58
2022/07/30 04:48:25;;;;;;;10.87;9.83;;;;;;;;;;5048357;28;20235;-57
2022/07/30 04:50:54;;;;;;;10.33;9.40;;;21.00;1.00;;;;;;5048001;28;20587;-58
2022/07/30 04:53:20;;;;;;;9.20;8.40;;;20.90;1.00;;;;;;5048626;28;20442;-57
2022/07/30 04:55:47;;;;;;;10.20;9.30;;;21.00;1.00;;;;;;5047055;28;20457;-57
2022/07/30 04:58:15;;;;;;;9.70;8.80;;;21.00;1.00;;;;;;5048057;28;20480;-58
2022/07/30 05:00:41;;;;;;;9.30;8.53;;;20.90;1.00;;;;;;5047971;28;20478;-58
2022/07/30 05:03:10;;;;;;;10.80;9.80;;;20.90;1.00;;;;;;5046544;28;20478;-58
2022/07/30 05:05:36;;;;;;;10.23;9.33;;;21.00;1.00;;;;;;5048923;28;20441;-58
2022/07/30 05:08:03;;;;;;;9.37;8.53;;;;;;;;;;5047921;28;20489;-58
2022/07/30 05:10:29;;;;;;;9.40;8.43;;;21.10;1.00;;;;;;5050197;28;20713;-57
2022/07/30 05:12:54;;;;;;;8.93;8.13;;;21.10;1.00;;;;;;5052709;28;20460;-58
2022/07/30 05:15:20;;;;;;;10.67;9.30;;;21.10;1.00;;;;;;5049998;28;20192;-58
2022/07/30 05:17:46;;;;;;;9.63;8.73;;;21.10;1.00;;;;;;5053047;28;20187;-58
2022/07/30 05:20:12;;;;;;;10.00;9.10;;;;;;;;;;5049121;28;20192;-59
2022/07/30 05:22:37;;;;;;;10.33;9.23;;;21.10;1.00;;;;;;5050320;28;20191;-58
2022/07/30 05:25:04;;;;;;;10.03;8.97;;;;;;;;;;5051385;28;20453;-58
2022/07/30 05:27:30;;;;;;;10.30;9.20;;;;;;;;;;5052495;28;20196;-58
2022/07/30 05:29:55;;;;;;;9.90;8.90;;;21.30;1.00;;;;;;5050909;28;20507;-56
2022/07/30 05:32:21;;;;;;;13.23;9.90;;;;;;;;;;5050384;28;20455;-58
2022/07/30 05:34:47;;;;;;;9.47;8.53;;;21.10;1.00;;;;;;5050815;28;20227;-59
2022/07/30 05:37:13;;;;;;;10.80;9.77;;;;;;;;;;5051310;28;20473;-58
2022/07/30 05:39:39;;;;;;;10.73;9.53;;;;;;;;;;5052007;28;20180;-59
2022/07/30 05:42:05;;;;;;;9.63;8.67;;;21.20;1.00;;;;;;5051993;28;21114;-58
2022/07/30 05:44:30;;;;;;;11.13;9.73;;;21.20;1.00;;;;;;5051819;28;20450;-59
2022/07/30 05:46:56;;;;;;;10.33;9.43;;;;;;;;;;5048238;28;20238;-59
2022/07/30 05:49:22;;;;;;;11.63;9.67;;;;;;;;;;5042963;28;20677;-58
2022/07/30 05:51:48;;;;;;;10.57;9.57;;;;;;;;;;5050561;28;20453;-57
2022/07/30 05:54:14;;;;;;;9.60;8.70;;;;;;;;;;5050154;28;20442;-58
2022/07/30 05:56:40;;;;;;;9.60;8.60;;;;;;;;;;5050533;28;20457;-58
2022/07/30 05:59:06;;;;;;;11.53;9.00;;;21.10;1.00;;;;;;5049980;28;20450;-58
2022/07/30 06:01:31;;;;;;;10.00;9.00;;;21.10;1.00;;;;;;5050562;28;20462;-58
2022/07/30 06:03:57;;;;;;;10.70;9.70;;;21.20;1.00;;;;;;5048988;28;20207;-58
2022/07/30 06:06:22;;;;;;;10.60;9.60;;;21.30;1.00;;;;;;5051467;28;20195;-58
2022/07/30 06:08:49;;;;;;;9.97;8.97;;;;;;;;;;5047881;28;20339;-57
2022/07/30 06:11:15;;;;;;;9.73;8.83;;;21.50;1.00;;;;;;5051227;28;20598;-57
2022/07/30 06:13:40;;;;;;;9.33;8.40;;;21.50;1.00;;;;;;5051191;28;20836;-57
2022/07/30 06:16:06;;;;;;;9.27;8.57;;;21.40;1.00;;;;;;5050157;28;20580;-57
2022/07/30 06:18:31;;;;;;;9.60;8.70;;;21.50;1.00;;;;;;5050298;28;20191;-57
2022/07/30 06:20:57;;;;;;;8.47;7.87;;;;;;;;;;5049976;28;20202;-58
2022/07/30 06:23:23;;;;;;;9.90;9.10;;;21.70;1.00;;;;;;5048149;28;20199;-58
2022/07/30 06:25:49;;;;;;;9.63;8.80;;;21.80;1.00;;;;;;5051601;28;20855;-58
2022/07/30 06:28:16;;;;;;;9.63;8.83;;;21.90;1.00;;;;;;5049814;28;20231;-58
2022/07/30 06:30:44;;;;;;;9.97;8.60;;;22.00;1.00;;;;;;5051767;28;20434;-58
2022/07/30 06:33:10;;;;;;;9.47;8.47;;;22.10;1.00;;;;;;5051346;28;20458;-58
2022/07/30 06:35:36;;;;;;;9.47;8.70;;;22.30;1.00;;;;;;5048632;28;20527;-58
2022/07/30 06:38:01;;;;;;;10.83;9.60;;;22.40;1.00;;;;;;5050759;28;20843;-59
2022/07/30 06:40:27;;;;;;;10.00;9.00;;;22.40;1.00;;;;;;5051055;28;20195;-58
2022/07/30 06:42:53;;;;;;;10.63;9.47;;;22.40;1.00;;;;;;5050515;28;20281;-58
2022/07/30 06:45:19;;;;;;;10.07;8.80;;;;;;;;;;5049899;28;20203;-58
2022/07/30 06:47:45;;;;;;;10.37;8.30;;;;;;;;;;5050196;28;20196;-59
2022/07/30 06:50:11;;;;;;;9.77;8.90;;;;;;;;;;5051412;28;20474;-58
2022/07/30 06:52:37;;;;;;;9.23;8.53;;;22.60;1.00;;;;;;5049955;28;21190;-58
2022/07/30 06:55:03;;;;;;;9.63;8.73;;;22.70;1.00;;;;;;5050779;28;20450;-59
2022/07/30 06:57:29;;;;;;;10.23;9.33;;;22.60;1.00;;;;;;5050146;28;20189;-61
2022/07/30 06:59:54;;;;;;;9.03;8.23;;;22.60;1.00;;;;;;5049415;28;20453;-59
2022/07/30 07:02:20;;;;;;;9.40;8.60;;;22.80;1.00;;;;;;5064924;28;20187;-59
2022/07/30 07:04:45;;;;;;;10.17;9.27;;;22.70;1.00;;;;;;5067872;28;20227;-59
2022/07/30 07:07:11;;;;;;;9.67;8.80;;;22.60;1.00;;;;;;5050191;28;20192;-61
2022/07/30 07:09:37;;;;;;;10.93;9.83;;;22.60;1.00;;;;;;5049897;28;20226;-59
2022/07/30 07:12:02;;;;;;;9.40;7.90;;;22.30;1.00;;;;;;5049950;28;20188;-60
2022/07/30 07:14:28;;;;;;;9.50;8.53;;;22.40;1.00;;;;;;5050550;28;20188;-59
2022/07/30 07:16:54;;;;;;;10.70;9.27;;;;;;;;;;5049018;28;20417;-60
2022/07/30 07:19:20;;;;;;;11.13;9.17;;;22.70;1.00;;;;;;5048269;28;20257;-59
2022/07/30 07:21:45;;;;;;;10.70;9.80;;;;;;;;;;5050402;28;20457;-60
2022/07/30 07:24:11;;;;;;;10.10;9.10;;;22.70;1.00;;;;;;5046752;28;20196;-57
2022/07/30 07:26:37;;;;;;;9.90;8.90;;;;;;;;;;5049925;28;20956;-56
2022/07/30 07:29:03;;;;;;;10.40;9.53;;;;;;;;;;5050069;28;20211;-58
2022/07/30 07:31:29;;;;;;;10.87;9.60;;;22.50;1.00;;;;;;5050939;28;20891;-58
2022/07/30 07:33:55;;;;;;;11.40;10.20;;;;;;;;;;5057460;28;20438;-58
2022/07/30 07:36:21;;;;;;;11.83;10.73;;;22.20;1.00;;;;;;5049693;28;20252;-61
2022/07/30 07:38:47;;;;;;;11.30;10.20;;;;;;;;;;5050404;28;20441;-58
2022/07/30 07:41:13;;;;;;;11.80;10.80;;;;;;;;;;5050283;28;20291;-56
2022/07/30 07:43:39;;;;;;;11.07;10.07;;;22.00;1.00;;;;;;5050035;28;20472;-57
2022/07/30 07:46:08;;;;;;;12.20;11.10;;;22.00;1.00;;;;;;5049420;28;20450;-58
2022/07/30 07:48:34;;;;;;;11.57;10.50;;;22.00;1.00;;;;;;5049726;28;20462;-58
2022/07/30 07:51:00;;;;;;;11.13;10.13;;;;;;;;;;5048726;28;20765;-59
2022/07/30 07:53:26;;;;;;;11.13;10.30;;;21.90;1.00;;;;;;5054259;28;20192;-58
2022/07/30 07:55:51;;;;;;;12.50;11.30;;;22.00;1.00;;;;;;5049768;28;20448;-58
2022/07/30 07:58:17;;;;;;;11.90;10.70;;;21.80;1.00;;;;;;5048875;28;20590;-57
2022/07/30 08:00:43;;;;;;;11.10;10.10;;;;;;;;;;5049158;28;20242;-62
2022/07/30 08:03:09;;;;;;;11.63;10.60;;;21.70;1.00;;;;;;5049474;28;20195;-59
2022/07/30 08:05:35;;;;;;;12.70;11.43;;;21.70;1.00;;;;;;5054004;28;20441;-59
2022/07/30 08:08:01;;;;;;;12.73;9.87;;;22.00;1.00;;;;;;5051981;28;20260;-59
2022/07/30 08:10:26;;;;;;;12.30;10.90;;;22.20;1.00;;;;;;5048177;28;20537;-58
2022/07/30 08:12:52;;;;;;;11.50;10.47;;;22.10;1.00;;;;;;5049479;28;20446;-58
2022/07/30 08:15:18;;;;;;;10.37;9.37;;;;;;;;;;5049571;28;20251;-58
2022/07/30 08:17:45;;;;;;;12.63;11.43;;;22.10;1.00;;;;;;5048674;28;20586;-59
2022/07/30 08:20:12;;;;;;;11.10;10.27;;;22.20;1.00;;;;;;5048524;28;20600;-60
2022/07/30 08:22:39;;;;;;;11.83;10.40;;;22.20;1.00;;;;;;5050254;28;20497;-59
2022/07/30 08:25:05;;;;;;;10.77;9.87;;;22.20;1.00;;;;;;5048035;28;20967;-58
2022/07/30 08:27:30;;;;;;;11.90;10.73;;;22.10;1.00;;;;;;5049272;28;20423;-59
2022/07/30 08:29:56;;;;;;;11.93;10.67;;;22.00;1.00;;;;;;5048829;28;20600;-59
2022/07/30 08:32:22;;;;;;;11.80;10.70;;;;;;;;;;5049768;28;20249;-59
2022/07/30 08:34:48;;;;;;;11.60;10.40;;;21.80;1.00;;;;;;5048221;28;20227;-59
2022/07/30 08:37:14;;;;;;;11.57;10.53;;;21.80;1.00;;;;;;5047691;28;20835;-59
2022/07/30 08:39:40;;;;;;;12.00;10.43;;;21.90;1.00;;;;;;5046563;28;20679;-58
2022/07/30 08:42:06;;;;;;;11.30;10.40;;;22.00;1.00;;;;;;5046807;28;20446;-58
2022/07/30 08:44:32;;;;;;;10.83;9.83;;;21.90;1.00;;;;;;5045619;28;20743;-59
2022/07/30 08:46:59;;;;;;;12.37;11.27;;;22.10;1.00;;;;;;5047693;28;20191;-59
2022/07/30 08:49:25;;;;;;;11.87;10.77;;;22.10;1.00;;;;;;5055633;28;20462;-60
2022/07/30 08:51:51;;;;;;;11.73;10.70;;;;;;;;;;5048559;28;20805;-60
2022/07/30 08:54:18;;;;;;;11.23;10.20;;;22.30;1.00;;;;;;5047241;28;20435;-60
2022/07/30 08:56:44;;;;;;;11.10;10.00;;;;;;;;;;5048753;28;20469;-60
2022/07/30 08:59:10;;;;;;;11.20;10.23;;;22.30;1.00;;;;;;5045602;28;20446;-59
2022/07/30 09:01:36;;;;;;;11.20;10.20;;;;;;;;;;5047160;28;20421;-60
2022/07/30 09:04:02;;;;;;;10.83;9.83;;;22.30;1.00;;;;;;5047530;28;20496;-58
2022/07/30 09:06:28;;;;;;;11.13;10.20;;;;;;;;;;5049229;28;20409;-60
2022/07/30 09:08:54;;;;;;;10.20;8.80;;;22.00;1.00;;;;;;5046300;28;20566;-58
2022/07/30 09:11:20;;;;;;;9.80;9.00;;;22.00;1.00;;;;;;5047152;28;20991;-58
2022/07/30 09:13:47;;;;;;;9.70;8.57;;;;;;;;;;5047133;28;20274;-59
2022/07/30 09:16:20;;;;;;;10.00;9.10;;;21.50;1.00;;;;;;5047419;28;20461;-59
2022/07/30 09:18:46;;;;;;;10.23;9.20;;;21.30;1.00;;;;;;5047388;28;20449;-58
2022/07/30 09:21:27;;;;;;;10.33;9.23;;;18.10;1.00;;;;;;5049791;28;20454;-60
2022/07/30 09:24:00;;;;;;;10.80;9.90;;;21.20;1.00;;;;;;5043669;28;20289;-59
2022/07/30 09:26:26;;;;;;;14.30;10.50;;;;;;;;;;5046838;28;20602;-60
2022/07/30 09:28:52;;;;;;;10.47;9.57;;;;;;;;;;5048167;28;20577;-59
2022/07/30 09:31:19;;;;;;;10.53;9.57;;;20.90;1.00;;;;;;5046927;28;20442;-58
2022/07/30 09:33:46;;;;;;;10.53;9.43;;;21.00;1.00;;;;;;5047498;28;20565;-58
2022/07/30 09:36:15;;;;;;;10.97;9.83;;;21.10;1.00;;;;;;5047373;28;20485;-59
2022/07/30 09:38:51;;;;;;;10.67;9.70;;;20.90;1.00;;;;;;5047455;28;20477;-59
2022/07/30 09:41:36;;;;;;;12.00;10.90;;;20.90;1.00;;;;;;5047528;28;20541;-59
2022/07/30 09:44:04;;;;;;;11.40;10.40;;;20.60;1.00;;;;;;5048021;28;20490;-59
2022/07/30 09:46:49;;;;;;;12.93;11.63;;;20.60;1.00;;;;;;5045078;28;20505;-59
2022/07/30 09:49:20;;;;;;;11.77;10.70;;;20.80;1.00;;;;;;5047610;28;20527;-60
2022/07/30 09:51:46;;;;;;;12.50;11.40;;;;;;;;;;5048157;28;20442;-59
2022/07/30 09:54:12;;;;;;;12.20;11.00;;;20.60;1.00;;;;;;5048095;28;20458;-60
2022/07/30 09:56:38;;;;;;;12.00;10.90;;;20.70;1.00;;;;;;5050228;28;20453;-60
2022/07/30 09:59:06;;;;;;;15.10;11.60;;;20.80;1.00;;;;;;5050913;28;20557;-58
2022/07/30 10:01:51;;;;;;;12.50;11.40;;;20.90;1.00;;;;;;5050611;28;20465;-58
2022/07/30 10:04:28;;;;;;;11.63;10.53;;;21.20;1.00;;;;;;5051374;28;20935;-59
2022/07/30 10:06:56;;;;;;;12.67;11.57;;;21.40;1.00;;;;;;5051928;28;20425;-59
2022/07/30 10:09:43;;;;;;;11.20;10.20;;;;;;;;;;5051473;28;20473;-59
2022/07/30 10:12:10;;;;;;;11.80;10.80;;;21.70;1.00;;;;;;5050716;28;20449;-59
2022/07/30 10:14:37;;;;;;;11.80;10.60;;;21.70;1.00;;;;;;5050378;28;20442;-59
2022/07/30 10:17:03;;;;;;;11.67;10.57;;;21.70;1.00;;;;;;5051102;28;20493;-58
2022/07/30 10:19:31;;;;;;;11.77;10.57;;;21.70;1.00;;;;;;5049062;28;20951;-58
2022/07/30 10:21:58;;;;;;;11.63;10.70;;;21.90;1.00;;;;;;5049475;28;20526;-58
2022/07/30 10:24:24;;;;;;;10.80;9.80;;;21.70;1.00;;;;;;5051434;28;20454;-58
2022/07/30 10:26:52;;;;;;;11.90;10.87;;;21.80;1.00;;;;;;5051075;28;20440;-59
2022/07/30 10:29:19;;;;;;;10.67;9.70;;;;;;;;;;5050827;28;20477;-58
2022/07/30 10:31:45;;;;;;;11.90;10.87;;;22.30;1.00;;;;;;5050227;28;20451;-58
2022/07/30 10:34:13;;;;;;;11.00;10.10;;;22.40;1.00;;;;;;5049488;28;20506;-60
2022/07/30 10:36:46;;;;;;;11.50;10.40;;;22.40;1.00;;;;;;5050530;28;20447;-59
2022/07/30 10:39:16;;;;;;;10.77;9.90;;;22.40;1.00;;;;;;5049485;28;20450;-58
2022/07/30 10:42:27;;;;;;;11.70;10.30;;;22.50;1.00;;;;;;5049591;28;20457;-59
2022/07/30 10:45:06;;;;;;;11.87;10.60;;;22.40;1.00;;;;;;5049597;28;20947;-59
2022/07/30 10:47:32;;;;;;;11.50;10.43;;;22.40;1.00;;;;;;5050838;28;20715;-62
2022/07/30 10:50:19;;;;;;;13.53;11.27;;;22.60;1.00;;;;;;5050910;28;20502;-60
2022/07/30 10:52:52;;;;;;;10.93;9.90;;;22.90;1.00;;;;;;5047668;28;20834;-59
2022/07/30 10:55:24;;;;;;;11.60;10.60;;;22.80;1.00;;;;;;5053509;28;20488;-59
2022/07/30 10:58:11;;;;;;;10.87;9.87;;;22.60;1.00;;;;;;5049530;28;20954;-58
2022/07/30 11:00:52;;;;;;;11.10;10.03;;;22.60;1.00;;;;;;5048582;28;20800;-59
2022/07/30 11:03:25;;;;;;;12.13;9.40;;;22.70;1.00;;;;;;5051126;28;20453;-59
2022/07/30 11:06:14;;;;;;;12.93;10.20;;;22.90;1.00;;;;;;5051397;28;20567;-60
2022/07/30 11:08:47;;;;;;;10.27;9.27;;;22.90;1.00;;;;;;5045025;28;20469;-59
2022/07/30 11:11:21;;;;;;;10.07;9.07;;;23.20;1.00;;;;;;5050183;28;20572;-59
2022/07/30 11:13:53;;;;;;;12.00;9.27;;;23.40;1.00;;;;;;5048250;28;20448;-59
2022/07/30 11:16:21;;;;;;;10.77;9.67;;;23.70;1.00;;;;;;5050689;28;20464;-58
2022/07/30 11:19:04;;;;;;;10.20;9.30;;;23.70;1.00;;;;;;5050037;28;20416;-58
2022/07/30 11:21:31;;;;;;;10.37;9.40;;;23.50;1.00;;;;;;5050330;28;20430;-63
2022/07/30 11:23:57;;;;;;;10.50;9.60;;;23.50;1.00;;;;;;5049843;28;20438;-59
2022/07/30 11:26:38;;;;;;;11.27;9.97;;;23.60;1.00;;;;;;5051336;28;20526;-57
2022/07/30 11:29:27;;;;;;;11.00;9.97;;;23.90;1.00;;;;;;5050429;28;20473;-59
2022/07/30 11:31:55;;;;;;;9.40;8.47;;;;;;;;;;5049961;28;20446;-58
2022/07/30 11:34:22;;;;;;;9.67;8.87;;;24.30;1.00;;;;;;5050712;28;20516;-59
2022/07/30 11:37:04;;;;;;;9.97;9.07;;;24.30;1.00;;;;;;5049404;28;20516;-59
2022/07/30 11:39:52;;;;;;;9.37;8.40;;;25.00;1.00;;;;;;5048175;28;20425;-59
2022/07/30 11:42:29;;;;;;;8.83;7.93;;;25.30;1.00;;;;;;5047235;28;20459;-59
2022/07/30 11:45:30;;;;;;;8.93;8.13;;;25.60;1.00;;;;;;5049865;28;20803;-58
2022/07/30 11:47:58;;;;;;;9.20;8.30;;;25.60;1.00;;;;;;5026459;28;20421;-60
2022/07/30 11:50:33;;;;;;;10.83;9.10;;;25.70;1.00;;;;;;5046386;28;20432;-58
2022/07/30 11:53:01;;;;;;;9.47;8.40;;;25.80;1.00;;;;;;5049574;28;20416;-59
2022/07/30 11:55:33;;;;;;;9.90;9.10;;;25.60;1.00;;;;;;5050701;28;20434;-59
2022/07/30 11:58:00;;;;;;;10.00;8.97;;;25.00;1.00;;;;;;5050321;28;20469;-58
2022/07/30 12:00:46;;;;;;;10.17;9.17;;;25.30;1.00;;;;;;5049951;28;20450;-59
2022/07/30 12:03:17;;;;;;;11.70;8.97;;;24.80;1.00;;;;;;5048566;28;21020;-59
2022/07/30 12:05:43;;;;;;;9.63;8.70;;;24.30;1.00;;;;;;5050325;28;20552;-60
2022/07/30 12:08:11;;;;;;;8.80;7.90;;;24.30;1.00;;;;;;5049910;28;20466;-59
2022/07/30 12:10:40;;;;;;;9.13;8.10;;;24.10;1.00;;;;;;5049388;28;20450;-59
2022/07/30 12:13:14;;;;;;;9.20;8.33;;;24.00;1.00;;;;;;5048562;28;20952;-58
2022/07/30 12:15:45;;;;;;;7.90;7.10;;;24.00;1.00;;;;;;5049807;28;20457;-59
2022/07/30 12:18:12;;;;;;;7.70;7.00;;;24.30;1.00;;;;;;5049443;28;20451;-58
2022/07/30 12:20:39;;;;;;;9.53;7.13;;;24.30;1.00;;;;;;5049856;28;20462;-60
2022/07/30 12:23:12;;;;;;;8.60;7.13;;;24.50;1.00;;;;;;5048477;28;20438;-59
2022/07/30 12:25:42;;;;;;;9.60;7.37;;;24.70;1.00;;;;;;5047338;28;20442;-58
2022/07/30 12:28:09;;;;;;;8.00;7.20;;;24.70;1.00;;;;;;5048957;28;20465;-59
2022/07/30 12:30:39;;;;;;;8.60;7.30;;;25.00;1.00;;;;;;5049261;28;20508;-58
2022/07/30 12:33:06;;;;;;;8.57;7.37;;;25.00;1.00;;;;;;5048955;28;20695;-59
2022/07/30 12:35:46;;;;;;;8.70;7.90;;;25.10;1.00;;;;;;5049517;28;20535;-59
2022/07/30 12:38:12;;;;;;;9.20;8.23;;;23.30;1.00;;;;;;5048315;28;20486;-58
2022/07/30 12:40:58;;;;;;;9.10;8.20;;;25.00;1.00;;;;;;5049467;28;20461;-57
2022/07/30 12:43:44;;;;;;;7.93;7.23;;;24.50;1.00;;;;;;5047856;28;20475;-59
2022/07/30 12:46:15;;;;;;;10.60;8.50;;;24.70;1.00;;;;;;5046117;28;20421;-59
2022/07/30 12:48:54;;;;;;;10.63;9.67;;;24.90;1.00;;;;;;5058063;28;20457;-59
2022/07/30 12:51:22;;;;;;;9.03;8.20;;;24.80;1.00;;;;;;5053111;28;20431;-58
2022/07/30 12:53:48;;;;;;;10.00;9.10;;;24.50;1.00;;;;;;5049297;28;20462;-58
2022/07/30 12:56:17;;;;;;;8.63;7.80;;;24.40;1.00;;;;;;5048025;28;20458;-59
2022/07/30 12:58:44;;;;;;;9.27;8.37;;;24.50;1.00;;;;;;5048023;28;20196;-58
2022/07/30 13:01:10;;;;;;;8.37;7.67;;;24.70;1.00;;;;;;5051194;28;20442;-59
2022/07/30 13:03:39;;;;;;;8.10;7.30;;;25.20;1.00;;;;;;5048274;28;20632;-59
2022/07/30 13:06:13;;;;;;;8.47;7.63;;;25.10;1.00;;;;;;5066288;28;20434;-59
2022/07/30 13:08:56;;;;;;;8.40;7.60;;;25.20;1.00;;;;;;5053891;28;20437;-59
2022/07/30 13:11:38;;;;;;;8.10;7.40;;;25.20;1.00;;;;;;5048528;28;20443;-58
2022/07/30 13:14:04;;;;;;;8.63;7.30;;;;;;;;;;5048516;28;20488;-59
2022/07/30 13:16:34;;;;;;;8.23;6.50;;;25.30;1.00;;;;;;5046214;28;20446;-59